Time;durP1;ratioP1;P1;durP2;ratioP2;P2;SDS_P1;SDS_P2;PMS_P1;PMS_P2;Temp;Humidity;BMP_temperature;BMP_pressure;BME280_temperature;BME280_humidity;BME280_pressure;Samples;Min_cycle;Max_cycle;Signal;HPM_P1;HPM_P2
2021/05/22 00:00:35;;;;;;;17.20;15.43;;;7.40;99.90;;;;;;4928192;28;20059;-65
2021/05/22 00:03:03;;;;;;;18.15;14.38;;;7.40;99.90;;;;;;4930119;28;20112;-64
2021/05/22 00:05:30;;;;;;;20.58;14.90;;;7.40;99.90;;;;;;4927373;28;20063;-65
2021/05/22 00:07:57;;;;;;;18.85;15.65;;;7.40;99.90;;;;;;4927738;28;21738;-65
2021/05/22 00:10:24;;;;;;;21.40;16.92;;;7.40;99.90;;;;;;4927456;28;20117;-65
2021/05/22 00:12:51;;;;;;;17.08;15.27;;;7.50;99.90;;;;;;4927451;28;20122;-65
2021/05/22 00:15:19;;;;;;;20.50;16.52;;;7.50;99.90;;;;;;4918580;28;20195;-65
2021/05/22 00:17:46;;;;;;;17.27;14.70;;;7.50;99.90;;;;;;4926838;28;20439;-65
2021/05/22 00:20:14;;;;;;;16.33;14.38;;;7.50;99.90;;;;;;4924206;28;20142;-65
2021/05/22 00:22:42;;;;;;;17.42;14.57;;;7.50;99.90;;;;;;4930875;28;20554;-65
2021/05/22 00:25:11;;;;;;;19.83;15.75;;;7.60;99.90;;;;;;4935539;28;20056;-65
2021/05/22 00:27:38;;;;;;;19.15;17.15;;;7.60;99.90;;;;;;4929931;28;20079;-65
2021/05/22 00:30:06;;;;;;;20.08;15.77;;;7.60;99.90;;;;;;4926751;28;20055;-65
2021/05/22 00:32:33;;;;;;;19.02;16.42;;;7.60;99.90;;;;;;4928536;28;20055;-65
2021/05/22 00:35:00;;;;;;;18.45;14.52;;;7.60;99.90;;;;;;4927022;28;20055;-65
2021/05/22 00:37:27;;;;;;;16.95;15.20;;;7.60;99.90;;;;;;4925810;28;20103;-65
2021/05/22 00:39:55;;;;;;;20.08;15.50;;;7.60;99.90;;;;;;4926107;28;20051;-65
2021/05/22 00:42:23;;;;;;;17.67;13.68;;;7.60;99.90;;;;;;4929078;28;20501;-65
2021/05/22 00:45:06;;;;;;;21.42;16.88;;;7.60;99.90;;;;;;4926944;28;20048;-65
2021/05/22 00:47:34;;;;;;;17.75;15.63;;;7.60;99.90;;;;;;4928527;28;21084;-65
2021/05/22 00:50:02;;;;;;;20.63;17.67;;;7.70;99.90;;;;;;4925955;28;20051;-65
2021/05/22 00:52:29;;;;;;;21.45;17.70;;;7.80;99.90;;;;;;4926681;28;20047;-65
2021/05/22 00:54:57;;;;;;;18.23;15.85;;;7.80;99.90;;;;;;4928725;28;20402;-65
2021/05/22 00:57:25;;;;;;;19.38;16.77;;;7.80;99.90;;;;;;4922212;28;20482;-65
2021/05/22 00:59:52;;;;;;;17.85;15.95;;;7.80;99.90;;;;;;4928322;28;20051;-65
2021/05/22 01:02:24;;;;;;;18.65;16.40;;;7.80;99.90;;;;;;4929079;28;20051;-65
2021/05/22 01:04:52;;;;;;;18.83;16.45;;;7.80;99.90;;;;;;4928775;28;20043;-65
2021/05/22 01:07:20;;;;;;;16.83;15.05;;;7.80;99.90;;;;;;4926677;28;20458;-65
2021/05/22 01:09:51;;;;;;;19.40;17.33;;;7.90;99.90;;;;;;4927520;28;20131;-65
2021/05/22 01:12:21;;;;;;;18.65;16.65;;;7.90;99.90;;;;;;4926684;28;21647;-65
2021/05/22 01:15:10;;;;;;;19.40;17.40;;;7.90;99.90;;;;;;4923219;28;20131;-65
2021/05/22 01:17:39;;;;;;;20.27;18.17;;;7.90;99.90;;;;;;4923457;28;20058;-65
2021/05/22 01:20:12;;;;;;;21.77;18.25;;;7.90;99.90;;;;;;4925752;28;20060;-65
2021/05/22 01:22:46;;;;;;;19.85;17.20;;;8.00;99.90;;;;;;4926534;28;20067;-65
2021/05/22 01:25:18;;;;;;;18.55;16.70;;;8.00;99.90;;;;;;4929263;28;20442;-65
2021/05/22 01:27:46;;;;;;;21.80;16.88;;;8.00;99.90;;;;;;4931494;28;20079;-66
2021/05/22 01:30:13;;;;;;;20.27;16.55;;;8.00;99.90;;;;;;4934093;28;20523;-65
2021/05/22 01:32:41;;;;;;;18.45;16.20;;;8.00;99.90;;;;;;4931079;28;20055;-64
2021/05/22 01:35:08;;;;;;;19.15;17.10;;;8.00;99.90;;;;;;4932473;28;20079;-65
2021/05/22 01:37:35;;;;;;;19.17;16.40;;;8.00;99.90;;;;;;4931085;28;20110;-65
2021/05/22 01:40:03;;;;;;;21.02;17.58;;;8.00;99.90;;;;;;4928725;28;20103;-65
2021/05/22 01:42:30;;;;;;;17.85;15.48;;;8.00;99.90;;;;;;4944767;28;20055;-65
2021/05/22 01:44:59;;;;;;;16.55;14.57;;;8.10;99.90;;;;;;4925208;28;20047;-65
2021/05/22 01:47:27;;;;;;;20.38;16.75;;;8.00;99.90;;;;;;4931517;28;20058;-64
2021/05/22 01:49:54;;;;;;;17.05;15.35;;;8.00;99.90;;;;;;4930049;28;20091;-65
2021/05/22 01:52:22;;;;;;;18.60;16.55;;;8.00;99.90;;;;;;4929919;28;20043;-65
2021/05/22 01:54:51;;;;;;;18.48;15.50;;;8.00;99.90;;;;;;4932900;28;20095;-65
2021/05/22 01:57:17;;;;;;;21.67;17.40;;;8.00;99.90;;;;;;4930674;28;20108;-65
2021/05/22 01:59:45;;;;;;;17.85;15.98;;;8.00;99.90;;;;;;4930371;28;20786;-65
2021/05/22 02:02:12;;;;;;;18.23;16.42;;;8.00;99.90;;;;;;4930738;28;20127;-65
2021/05/22 02:04:44;;;;;;;18.85;13.90;;;8.00;99.90;;;;;;4931749;28;20055;-65
2021/05/22 02:07:19;;;;;;;18.58;16.58;;;8.00;99.90;;;;;;4929174;28;23569;-65
2021/05/22 02:09:48;;;;;;;18.25;16.30;;;7.90;99.90;;;;;;4929261;28;20086;-65
2021/05/22 02:12:15;;;;;;;19.00;15.52;;;7.90;99.90;;;;;;4929128;28;20054;-66
2021/05/22 02:14:45;;;;;;;28.58;17.40;;;7.90;99.90;;;;;;4945925;28;20587;-65
2021/05/22 02:17:13;;;;;;;20.80;17.75;;;7.90;99.90;;;;;;4929727;28;20059;-65
2021/05/22 02:19:47;;;;;;;17.83;15.77;;;7.90;99.90;;;;;;4932580;28;20055;-65
2021/05/22 02:22:22;;;;;;;20.23;15.55;;;7.90;99.90;;;;;;4930781;28;20112;-65
2021/05/22 02:24:51;;;;;;;17.30;15.23;;;7.90;99.90;;;;;;4930173;28;20124;-65
2021/05/22 02:27:19;;;;;;;16.48;13.70;;;7.90;99.90;;;;;;4932281;28;20063;-65
2021/05/22 02:29:47;;;;;;;16.10;14.43;;;7.90;99.90;;;;;;4929679;28;20055;-65
2021/05/22 02:32:17;;;;;;;19.45;13.95;;;7.90;99.90;;;;;;4927954;28;20170;-65
2021/05/22 02:35:04;;;;;;;16.58;14.88;;;7.90;99.90;;;;;;4918824;28;20506;-65
2021/05/22 02:37:33;;;;;;;16.35;12.55;;;7.90;99.90;;;;;;4932359;28;20056;-65
2021/05/22 02:40:05;;;;;;;17.60;14.40;;;7.90;99.90;;;;;;4928900;28;20055;-65
2021/05/22 02:42:32;;;;;;;15.50;13.23;;;7.90;99.90;;;;;;4930081;28;20123;-66
2021/05/22 02:45:01;;;;;;;13.85;12.45;;;7.90;99.90;;;;;;4929960;28;20115;-65
2021/05/22 02:47:29;;;;;;;15.40;13.23;;;7.80;99.90;;;;;;4929849;28;20111;-65
2021/05/22 02:50:04;;;;;;;14.98;13.23;;;7.80;99.90;;;;;;4925309;28;20146;-64
2021/05/22 02:52:32;;;;;;;16.70;14.30;;;7.80;99.90;;;;;;4931140;28;20107;-65
2021/05/22 02:55:01;;;;;;;13.73;11.50;;;7.80;99.90;;;;;;4931932;28;20047;-66
2021/05/22 02:57:28;;;;;;;15.43;12.93;;;7.80;99.90;;;;;;4931019;28;20055;-66
2021/05/22 02:59:56;;;;;;;15.10;13.48;;;7.80;99.90;;;;;;4929006;28;20055;-65
2021/05/22 03:02:23;;;;;;;13.77;12.25;;;7.80;99.90;;;;;;4930363;28;20051;-65
2021/05/22 03:04:51;;;;;;;15.35;12.95;;;7.80;99.90;;;;;;4945669;28;20078;-65
2021/05/22 03:07:18;;;;;;;15.52;13.52;;;7.80;99.90;;;;;;4930511;28;20059;-65
2021/05/22 03:09:46;;;;;;;16.05;13.70;;;7.80;99.90;;;;;;4927820;28;20197;-65
2021/05/22 03:12:19;;;;;;;14.55;12.70;;;7.80;99.90;;;;;;4926134;29;20136;-65
2021/05/22 03:14:46;;;;;;;14.95;12.48;;;7.80;99.90;;;;;;4929855;28;20059;-65
2021/05/22 03:17:13;;;;;;;16.02;13.07;;;7.80;99.90;;;;;;4929469;28;20378;-65
2021/05/22 03:19:40;;;;;;;13.55;12.15;;;7.90;99.90;;;;;;4930953;28;20070;-64
2021/05/22 03:22:07;;;;;;;14.13;11.30;;;7.90;99.90;;;;;;4926878;28;20830;-65
2021/05/22 03:24:34;;;;;;;15.45;12.73;;;7.90;99.90;;;;;;4928963;28;20063;-64
2021/05/22 03:27:01;;;;;;;13.32;11.43;;;8.00;99.90;;;;;;4930166;28;20451;-65
2021/05/22 03:29:28;;;;;;;15.82;12.10;;;8.10;99.90;;;;;;4929159;28;20052;-65
2021/05/22 03:31:55;;;;;;;13.63;11.98;;;8.20;99.90;;;;;;4932951;28;20055;-65
2021/05/22 03:34:21;;;;;;;12.70;11.40;;;8.20;99.90;;;;;;4935938;28;20623;-65
2021/05/22 03:36:48;;;;;;;14.00;10.23;;;8.30;99.90;;;;;;4933152;28;20534;-65
2021/05/22 03:39:15;;;;;;;12.80;10.80;;;8.40;99.90;;;;;;4929729;28;20059;-65
2021/05/22 03:41:42;;;;;;;11.07;9.15;;;8.40;99.90;;;;;;4926911;28;20075;-65
2021/05/22 03:44:09;;;;;;;11.50;10.40;;;8.50;99.90;;;;;;4928354;28;20047;-65
2021/05/22 03:46:36;;;;;;;12.98;11.38;;;8.50;99.90;;;;;;4929959;29;20055;-64
2021/05/22 03:49:03;;;;;;;11.27;9.40;;;8.60;99.90;;;;;;4931076;28;20055;-66
2021/05/22 03:51:31;;;;;;;16.90;9.70;;;8.60;99.90;;;;;;4929800;28;20051;-65
2021/05/22 03:53:58;;;;;;;19.33;9.30;;;8.70;99.90;;;;;;4928192;28;20456;-65
2021/05/22 03:56:25;;;;;;;12.57;8.20;;;8.80;99.90;;;;;;4930686;28;20150;-65
2021/05/22 03:58:53;;;;;;;8.65;7.85;;;8.90;99.90;;;;;;4929934;28;20130;-65
2021/05/22 04:01:20;;;;;;;11.27;8.23;;;9.00;99.90;;;;;;4930074;28;20058;-65
2021/05/22 04:03:47;;;;;;;9.20;8.15;;;9.10;99.90;;;;;;4929259;28;20078;-65
2021/05/22 04:06:14;;;;;;;8.15;7.40;;;9.20;99.90;;;;;;4929105;28;20054;-65
2021/05/22 04:08:42;;;;;;;6.80;6.07;;;9.30;99.90;;;;;;4930313;28;20059;-66
2021/05/22 04:11:08;;;;;;;8.15;6.63;;;9.30;99.90;;;;;;4929157;28;20047;-65
2021/05/22 04:13:35;;;;;;;8.98;6.90;;;9.40;99.90;;;;;;4929846;28;20126;-65
2021/05/22 04:16:02;;;;;;;6.97;6.28;;;9.50;99.90;;;;;;4927624;28;20103;-64
2021/05/22 04:18:30;;;;;;;8.18;7.18;;;9.50;99.90;;;;;;4930180;28;20059;-65
2021/05/22 04:20:57;;;;;;;7.65;5.95;;;9.50;99.90;;;;;;4929820;28;20055;-65
2021/05/22 04:23:24;;;;;;;6.32;5.60;;;9.60;99.90;;;;;;4929594;28;20051;-65
2021/05/22 04:25:51;;;;;;;6.45;5.78;;;9.70;99.90;;;;;;4926757;28;20043;-65
2021/05/22 04:28:18;;;;;;;9.68;5.20;;;9.70;99.90;;;;;;4930000;28;20118;-65
2021/05/22 04:30:45;;;;;;;7.25;6.55;;;9.70;99.90;;;;;;4928924;28;20058;-65
2021/05/22 04:33:11;;;;;;;13.23;7.20;;;9.70;99.90;;;;;;4929045;28;20398;-65
2021/05/22 04:35:38;;;;;;;8.60;6.22;;;9.80;99.90;;;;;;4929358;28;20770;-65
2021/05/22 04:38:05;;;;;;;9.13;8.15;;;9.80;99.90;;;;;;4927628;28;20486;-66
2021/05/22 04:40:32;;;;;;;10.90;6.95;;;9.90;99.90;;;;;;4928747;28;20052;-65
2021/05/22 04:42:59;;;;;;;6.70;6.00;;;9.90;99.90;;;;;;4930534;28;20055;-65
2021/05/22 04:45:26;;;;;;;10.13;6.82;;;9.90;99.90;;;;;;4929013;28;20162;-66
2021/05/22 04:47:53;;;;;;;6.68;6.00;;;10.00;99.90;;;;;;4928331;28;20103;-66
2021/05/22 04:50:20;;;;;;;7.32;5.88;;;10.10;99.90;;;;;;4930111;28;20058;-65
2021/05/22 04:52:52;;;;;;;14.88;6.80;;;10.10;99.90;;;;;;4928171;28;20398;-65
2021/05/22 04:55:19;;;;;;;9.20;6.40;;;10.20;99.90;;;;;;4930254;28;20127;-65
2021/05/22 04:57:46;;;;;;;6.65;5.97;;;10.20;99.90;;;;;;4927119;28;20154;-64
2021/05/22 05:00:13;;;;;;;7.50;5.75;;;10.30;99.90;;;;;;4928806;28;20063;-65
2021/05/22 05:02:40;;;;;;;7.50;6.18;;;10.30;99.90;;;;;;4928129;28;21382;-65
2021/05/22 05:05:08;;;;;;;7.03;6.32;;;10.30;99.90;;;;;;4930560;28;20039;-65
2021/05/22 05:07:39;;;;;;;6.07;5.53;;;10.40;99.90;;;;;;4931792;28;20115;-65
2021/05/22 05:10:06;;;;;;;8.52;7.68;;;10.40;99.90;;;;;;4931895;28;20051;-65
2021/05/22 05:12:33;;;;;;;5.93;5.43;;;10.50;99.90;;;;;;4946390;28;20510;-64
2021/05/22 05:15:00;;;;;;;6.60;5.18;;;10.60;99.90;;;;;;4933456;28;20159;-65
2021/05/22 05:17:27;;;;;;;7.65;6.32;;;10.70;99.90;;;;;;4932982;28;20107;-64
2021/05/22 05:19:54;;;;;;;12.35;6.00;;;10.80;99.90;;;;;;4931806;28;20059;-66
2021/05/22 05:22:21;;;;;;;5.13;4.65;;;10.90;99.90;;;;;;4931525;28;20118;-65
2021/05/22 05:24:48;;;;;;;11.02;5.00;;;10.90;99.90;;;;;;4933270;28;20082;-65
2021/05/22 05:27:15;;;;;;;6.40;5.10;;;11.00;99.90;;;;;;4931903;28;20087;-65
2021/05/22 05:29:41;;;;;;;6.82;5.43;;;11.10;99.90;;;;;;4931525;28;20048;-65
2021/05/22 05:32:09;;;;;;;6.60;5.68;;;11.20;99.90;;;;;;4931767;28;20118;-65
2021/05/22 05:34:38;;;;;;;10.27;5.40;;;11.20;99.90;;;;;;4934027;28;20082;-65
2021/05/22 05:37:05;;;;;;;9.57;7.07;;;11.30;99.90;;;;;;4929738;28;20059;-65
2021/05/22 05:39:32;;;;;;;7.22;5.35;;;11.30;99.90;;;;;;4932543;28;20494;-65
2021/05/22 05:41:59;;;;;;;8.90;4.93;;;11.40;99.90;;;;;;4929250;28;21160;-65
2021/05/22 05:44:26;;;;;;;7.07;4.45;;;11.50;99.90;;;;;;4930719;28;20154;-65
2021/05/22 05:46:53;;;;;;;5.25;4.75;;;11.60;99.90;;;;;;4930815;28;20106;-65
2021/05/22 05:49:20;;;;;;;6.07;4.68;;;11.60;99.90;;;;;;4932524;28;20465;-65
2021/05/22 05:51:46;;;;;;;10.55;5.07;;;11.70;99.90;;;;;;4927185;28;20196;-65
2021/05/22 05:54:13;;;;;;;9.30;5.97;;;11.70;99.90;;;;;;4928914;28;20054;-65
2021/05/22 05:56:40;;;;;;;6.60;5.15;;;11.80;99.90;;;;;;4928197;28;20054;-65
2021/05/22 05:59:07;;;;;;;9.05;5.80;;;11.90;99.90;;;;;;4929079;28;20477;-64
2021/05/22 06:01:34;;;;;;;6.80;6.05;;;11.90;99.90;;;;;;4928937;28;20134;-62
2021/05/22 06:04:01;;;;;;;6.28;5.78;;;11.90;99.90;;;;;;4926874;28;24558;-63
2021/05/22 06:06:28;;;;;;;6.65;5.82;;;12.00;99.90;;;;;;4930046;28;20055;-62
2021/05/22 06:09:09;;;;;;;4.00;3.80;;;12.10;99.90;;;;;;3121975;28;10003280;-66
2021/05/22 06:11:37;;;;;;;6.93;6.15;;;12.00;99.90;;;;;;2549607;28;10002232;-65
2021/05/22 06:14:10;;;;;;;9.85;6.32;;;12.00;99.90;;;;;;4927956;28;20423;-65
2021/05/22 06:16:37;;;;;;;6.47;5.88;;;12.00;99.90;;;;;;4929806;28;20165;-65
2021/05/22 06:19:04;;;;;;;10.18;6.40;;;12.00;99.90;;;;;;4931537;28;20047;-66
2021/05/22 06:21:35;;;;;;;6.97;6.32;;;12.00;99.90;;;;;;4945779;28;20453;-66
2021/05/22 06:24:03;;;;;;;7.32;6.53;;;12.00;99.90;;;;;;4930909;28;20159;-65
2021/05/22 06:26:30;;;;;;;11.60;6.85;;;11.90;99.90;;;;;;4930171;28;20048;-66
2021/05/22 06:28:57;;;;;;;7.20;6.50;;;12.00;99.90;;;;;;4933122;28;20058;-65
2021/05/22 06:31:24;;;;;;;8.98;7.13;;;12.10;99.90;;;;;;4932058;28;20066;-67
2021/05/22 06:33:51;;;;;;;8.13;6.47;;;12.10;99.90;;;;;;4930645;28;20421;-66
2021/05/22 06:36:18;;;;;;;7.50;6.25;;;12.10;99.90;;;;;;4927259;28;20056;-65
2021/05/22 06:38:44;;;;;;;7.28;6.53;;;11.80;99.90;;;;;;4929237;28;20063;-66
2021/05/22 06:41:11;;;;;;;7.22;6.53;;;11.80;99.90;;;;;;4930399;28;20110;-66
2021/05/22 06:43:39;;;;;;;9.43;8.10;;;11.60;99.90;;;;;;4931403;28;20541;-65
2021/05/22 06:48:38;;;;;;;10.52;8.55;;;11.30;99.90;;;;;;4927469;28;20110;-65
2021/05/22 06:51:06;;;;;;;9.90;8.57;;;11.40;99.90;;;;;;4931978;28;20119;-66
2021/05/22 06:53:33;;;;;;;8.80;7.88;;;11.40;99.90;;;;;;4929941;28;20098;-65
2021/05/22 06:56:01;;;;;;;10.43;7.88;;;11.50;99.90;;;;;;4929189;28;20051;-65
2021/05/22 06:58:28;;;;;;;7.65;6.85;;;11.80;99.90;;;;;;4930766;28;20074;-66
2021/05/22 07:00:56;;;;;;;9.05;7.95;;;11.90;99.90;;;;;;4935973;28;20158;-66
2021/05/22 07:03:24;;;;;;;6.82;6.32;;;12.00;99.90;;;;;;4930636;28;20142;-66
2021/05/22 07:05:52;;;;;;;7.47;6.63;;;12.00;99.90;;;;;;4928177;28;20056;-66
2021/05/22 07:08:19;;;;;;;7.78;6.57;;;12.10;99.90;;;;;;4927535;28;20055;-66
2021/05/22 07:10:47;;;;;;;6.20;5.70;;;12.00;99.90;;;;;;4924589;28;20123;-66
2021/05/22 07:13:14;;;;;;;10.52;7.25;;;12.10;99.90;;;;;;4930409;28;20067;-65
2021/05/22 07:15:41;;;;;;;8.82;6.45;;;12.30;99.90;;;;;;4931682;28;20086;-66
2021/05/22 07:18:08;;;;;;;10.32;7.65;;;12.40;99.90;;;;;;4927901;28;20514;-66
2021/05/22 07:20:35;;;;;;;9.85;6.00;;;12.30;99.90;;;;;;4930835;28;20055;-66
2021/05/22 07:23:02;;;;;;;8.48;6.57;;;12.20;99.90;;;;;;4929060;28;20044;-66
2021/05/22 07:25:29;;;;;;;10.05;5.13;;;12.10;99.90;;;;;;4929894;28;20920;-65
2021/05/22 07:27:56;;;;;;;5.60;5.07;;;12.10;99.90;;;;;;4942512;28;20059;-66
2021/05/22 07:30:24;;;;;;;5.68;5.07;;;12.00;99.90;;;;;;4931342;28;20047;-66
2021/05/22 07:32:51;;;;;;;5.38;4.75;;;11.80;99.90;;;;;;4912388;29;20043;-66
2021/05/22 07:35:18;;;;;;;7.90;5.63;;;11.80;99.90;;;;;;4944631;28;20666;-66
2021/05/22 07:37:45;;;;;;;5.85;5.25;;;11.70;99.90;;;;;;4927607;28;20936;-66
2021/05/22 07:40:13;;;;;;;6.25;5.68;;;11.70;99.90;;;;;;4930036;28;20065;-66
2021/05/22 07:42:47;;;;;;;4.93;4.28;;;11.90;99.90;;;;;;4928727;28;21456;-66
2021/05/22 07:45:14;;;;;;;5.03;4.53;;;12.00;99.90;;;;;;4927389;28;20047;-66
2021/05/22 07:47:42;;;;;;;7.82;4.90;;;12.20;99.90;;;;;;4928424;28;20114;-66
2021/05/22 07:50:10;;;;;;;8.10;5.18;;;12.50;99.90;;;;;;4928731;28;20501;-65
2021/05/22 07:52:40;;;;;;;6.53;5.90;;;12.60;99.90;;;;;;4927354;28;20051;-66
2021/05/22 07:55:09;;;;;;;6.63;5.63;;;12.70;99.90;;;;;;4927600;28;20055;-65
2021/05/22 07:57:37;;;;;;;6.53;5.82;;;12.80;99.90;;;;;;4929187;28;20047;-65
2021/05/22 08:00:05;;;;;;;5.57;5.05;;;12.80;99.90;;;;;;4926052;28;20051;-66
2021/05/22 08:02:36;;;;;;;5.53;5.03;;;12.80;99.90;;;;;;4929746;28;20099;-65
2021/05/22 08:05:06;;;;;;;5.53;4.32;;;12.70;99.90;;;;;;4929664;28;20062;-66
2021/05/22 08:07:34;;;;;;;4.30;4.00;;;12.90;99.90;;;;;;4927652;28;20063;-66
2021/05/22 08:10:03;;;;;;;5.53;5.03;;;13.10;99.90;;;;;;4927288;28;20087;-66
2021/05/22 08:12:30;;;;;;;6.03;5.25;;;13.20;99.90;;;;;;4929450;28;20051;-66
2021/05/22 08:14:58;;;;;;;5.80;5.20;;;13.10;99.90;;;;;;4926114;28;20529;-66
2021/05/22 08:17:24;;;;;;;5.82;5.32;;;12.90;99.90;;;;;;4929166;28;20114;-66
2021/05/22 08:19:51;;;;;;;5.68;4.70;;;12.80;99.90;;;;;;4918818;28;20058;-66
2021/05/22 08:22:21;;;;;;;4.88;4.43;;;12.70;99.90;;;;;;4927356;28;20102;-66
2021/05/22 08:24:49;;;;;;;5.85;4.13;;;12.70;99.90;;;;;;4928386;28;20047;-66
2021/05/22 08:27:18;;;;;;;7.82;3.92;;;12.80;99.90;;;;;;4928815;28;20968;-65
2021/05/22 08:29:55;;;;;;;3.60;3.30;;;12.70;99.90;;;;;;4925481;28;21689;-66
2021/05/22 08:32:27;;;;;;;6.15;4.53;;;12.60;99.90;;;;;;4930152;28;20075;-65
2021/05/22 08:34:55;;;;;;;5.75;4.40;;;12.60;99.90;;;;;;4929004;28;20058;-66
2021/05/22 08:37:23;;;;;;;5.35;4.47;;;12.60;99.90;;;;;;4929074;28;20055;-65
2021/05/22 08:39:52;;;;;;;8.27;4.97;;;12.60;99.90;;;;;;4925707;28;20052;-66
2021/05/22 08:42:24;;;;;;;3.80;3.50;;;12.60;99.90;;;;;;4929899;28;20064;-65
2021/05/22 08:44:53;;;;;;;4.10;3.80;;;12.40;99.90;;;;;;4929323;28;20102;-65
2021/05/22 08:47:21;;;;;;;4.28;3.20;;;12.50;99.90;;;;;;4928807;28;20059;-66
2021/05/22 08:49:47;;;;;;;5.70;2.80;;;12.60;99.90;;;;;;4921586;28;20059;-65
2021/05/22 08:52:18;;;;;;;2.60;2.40;;;12.70;99.90;;;;;;4925414;28;20063;-65
2021/05/22 08:54:46;;;;;;;4.30;3.17;;;12.80;99.90;;;;;;4921508;29;20051;-66
2021/05/22 08:57:15;;;;;;;4.38;3.63;;;12.90;99.90;;;;;;4929405;28;20051;-67
2021/05/22 08:59:45;;;;;;;5.30;2.97;;;12.80;99.90;;;;;;4928917;28;20110;-66
2021/05/22 09:02:14;;;;;;;2.03;1.90;;;12.90;99.90;;;;;;4925573;28;20059;-66
2021/05/22 09:05:06;;;;;;;2.08;1.42;;;13.10;99.90;;;;;;4926114;28;20079;-66
2021/05/22 09:07:35;;;;;;;1.15;1.00;;;13.20;99.90;;;;;;4928242;28;20059;-66
2021/05/22 09:10:09;;;;;;;1.60;1.50;;;13.40;99.90;;;;;;4923441;28;20052;-66
2021/05/22 09:12:41;;;;;;;1.30;1.20;;;13.60;99.90;;;;;;4926537;28;20086;-65
2021/05/22 09:15:13;;;;;;;1.58;1.48;;;13.60;99.90;;;;;;4928752;28;20051;-66
2021/05/22 09:17:57;;;;;;;1.63;1.35;;;13.60;99.90;;;;;;4927567;28;20760;-66
2021/05/22 09:20:28;;;;;;;2.03;1.10;;;13.60;99.90;;;;;;4926715;28;20091;-65
2021/05/22 09:23:19;;;;;;;4.50;2.30;;;13.60;99.90;;;;;;4922138;28;20196;-66
2021/05/22 09:25:54;;;;;;;4.32;1.65;;;13.70;99.90;;;;;;4912980;28;20083;-67
2021/05/22 09:28:24;;;;;;;5.20;2.28;;;13.70;99.90;;;;;;4923029;28;20501;-66
2021/05/22 09:30:52;;;;;;;2.58;2.17;;;13.90;99.90;;;;;;4921103;28;20066;-66
2021/05/22 09:33:23;;;;;;;3.25;1.55;;;13.90;99.90;;;;;;4926901;28;20373;-67
2021/05/22 09:36:02;;;;;;;2.55;1.90;;;14.00;99.90;;;;;;4924031;28;20054;-65
2021/05/22 09:38:40;;;;;;;1.88;1.50;;;14.10;99.90;;;;;;4927573;28;20063;-66
2021/05/22 09:41:13;;;;;;;4.03;2.63;;;14.00;99.90;;;;;;4927667;28;20062;-66
2021/05/22 09:43:40;;;;;;;3.38;2.38;;;14.00;99.90;;;;;;4929060;28;20059;-66
2021/05/22 09:46:10;;;;;;;1.95;1.85;;;14.00;99.90;;;;;;4925622;28;20052;-66
2021/05/22 09:48:38;;;;;;;5.00;1.67;;;14.10;99.90;;;;;;4927174;28;20087;-65
2021/05/22 09:51:07;;;;;;;2.42;2.00;;;14.20;99.90;;;;;;4929015;28;20213;-66
2021/05/22 09:53:37;;;;;;;1.60;1.50;;;14.30;99.90;;;;;;4930767;28;20055;-66
2021/05/22 09:56:15;;;;;;;3.53;1.60;;;14.40;99.90;;;;;;4930648;28;20163;-67
2021/05/22 09:58:48;;;;;;;2.92;2.63;;;14.30;99.90;;;;;;4930696;28;20375;-67
2021/05/22 10:01:15;;;;;;;5.38;2.25;;;14.30;99.90;;;;;;4931339;28;20062;-66
2021/05/22 10:03:45;;;;;;;3.58;2.63;;;14.10;99.90;;;;;;4932234;28;20119;-66
2021/05/22 10:06:13;;;;;;;2.47;2.20;;;14.10;99.90;;;;;;4932098;28;20058;-66
2021/05/22 10:08:42;;;;;;;4.22;2.78;;;14.10;99.90;;;;;;4930591;28;20059;-66
2021/05/22 10:11:09;;;;;;;3.60;2.58;;;14.10;99.90;;;;;;4930922;28;20051;-67
2021/05/22 10:13:36;;;;;;;3.60;2.65;;;14.00;99.90;;;;;;4928708;28;20075;-66
2021/05/22 10:16:06;;;;;;;5.78;2.75;;;14.10;99.90;;;;;;4927305;28;20134;-67
2021/05/22 10:18:34;;;;;;;3.40;1.90;;;14.40;99.90;;;;;;4929464;28;20450;-66
2021/05/22 10:21:04;;;;;;;2.03;1.90;;;14.50;99.90;;;;;;4930797;28;20059;-67
2021/05/22 10:23:31;;;;;;;5.75;2.40;;;14.60;99.90;;;;;;4929484;28;20059;-66
2021/05/22 10:26:02;;;;;;;3.25;2.40;;;14.70;99.90;;;;;;4926546;28;20055;-67
2021/05/22 10:28:29;;;;;;;6.32;2.30;;;14.70;99.90;;;;;;4931309;28;20056;-67
2021/05/22 10:30:56;;;;;;;5.22;4.05;;;14.60;99.90;;;;;;4929881;28;20177;-67
2021/05/22 10:33:24;;;;;;;4.45;2.85;;;14.70;99.90;;;;;;4929343;28;25813;-66
2021/05/22 10:35:58;;;;;;;5.10;2.65;;;14.70;99.90;;;;;;4929797;28;20083;-63
2021/05/22 10:38:34;;;;;;;2.63;2.30;;;14.80;99.90;;;;;;4930418;28;20107;-65
2021/05/22 10:41:24;;;;;;;4.47;2.30;;;14.70;99.90;;;;;;4930494;28;20093;-64
2021/05/22 10:43:57;;;;;;;;;;;14.60;99.90;;;;;;4929118;28;20059;-64
2021/05/22 10:46:24;;;;;;;8.07;3.08;;;14.50;99.90;;;;;;4930972;28;19931;-64
2021/05/22 10:48:59;;;;;;;4.35;1.30;;;14.80;99.90;;;;;;4929423;28;20074;-64
2021/05/22 10:51:33;;;;;;;2.80;1.00;;;15.30;99.90;;;;;;4944952;28;20051;-64
2021/05/22 10:54:06;;;;;;;4.53;1.38;;;15.90;99.90;;;;;;4941701;28;20055;-65
2021/05/22 10:56:33;;;;;;;1.92;1.15;;;16.00;99.90;;;;;;4930221;28;20059;-63
2021/05/22 10:59:07;;;;;;;7.13;1.75;;;16.20;99.90;;;;;;4928552;28;20062;-64
2021/05/22 11:01:40;;;;;;;2.75;1.38;;;16.30;99.90;;;;;;4929565;28;20150;-64
2021/05/22 11:04:08;;;;;;;5.28;2.13;;;16.50;99.90;;;;;;4927174;28;20493;-64
2021/05/22 11:06:50;;;;;;;5.18;2.22;;;16.60;99.90;;;;;;4927886;29;20078;-65
2021/05/22 11:11:58;;;;;;;4.60;2.42;;;16.10;99.90;;;;;;4927127;28;20077;-64
2021/05/22 11:14:51;;;;;;;4.43;1.67;;;16.00;99.90;;;;;;4926261;28;20067;-64
2021/05/22 11:17:21;;;;;;;1.70;1.25;;;15.80;99.90;;;;;;4928728;28;20123;-64
2021/05/22 11:20:00;;;;;;;5.70;1.50;;;15.90;99.90;;;;;;4925579;28;20052;-65
2021/05/22 11:22:32;;;;;;;5.10;2.25;;;16.10;99.90;;;;;;4929206;28;20063;-63
2021/05/22 11:25:06;;;;;;;3.92;2.50;;;16.10;99.90;;;;;;4929577;28;20183;-65
2021/05/22 11:27:49;;;;;;;1.25;0.90;;;16.20;99.90;;;;;;4928183;28;20078;-65
2021/05/22 11:30:22;;;;;;;3.55;1.75;;;16.20;99.90;;;;;;4926559;28;25696;-64
2021/05/22 11:32:57;;;;;;;2.97;1.38;;;16.40;99.90;;;;;;4927880;28;20070;-65
2021/05/22 11:35:24;;;;;;;3.50;1.65;;;16.50;99.90;;;;;;4926659;28;20054;-65
2021/05/22 11:37:55;;;;;;;9.98;3.08;;;16.60;99.90;;;;;;4926814;28;20062;-64
2021/05/22 11:40:43;;;;;;;3.38;1.45;;;16.60;99.90;;;;;;4929394;28;20138;-63
2021/05/22 11:43:16;;;;;;;5.32;1.88;;;16.80;99.90;;;;;;4909319;29;20409;-64
2021/05/22 11:45:48;;;;;;;4.78;1.95;;;16.90;99.90;;;;;;4929507;28;20063;-65
2021/05/22 11:48:31;;;;;;;4.32;1.55;;;16.90;99.90;;;;;;4928709;28;20062;-64
2021/05/22 11:50:58;;;;;;;10.85;1.38;;;16.90;99.90;;;;;;4928397;28;20044;-64
2021/05/22 11:53:26;;;;;;;5.45;1.20;;;17.10;99.90;;;;;;4944559;28;20078;-64
2021/05/22 11:56:14;;;;;;;5.32;1.35;;;17.40;99.90;;;;;;4926527;28;20062;-65
2021/05/22 11:58:52;;;;;;;5.57;1.50;;;17.40;99.90;;;;;;4927027;28;20059;-64
2021/05/22 12:01:22;;;;;;;5.85;1.25;;;17.50;99.90;;;;;;4922981;28;20552;-64
2021/05/22 12:03:51;;;;;;;2.80;2.03;;;17.40;99.90;;;;;;4920829;28;20125;-64
2021/05/22 12:06:31;;;;;;;5.43;2.00;;;17.60;99.90;;;;;;4927028;28;20099;-64
2021/05/22 12:09:13;;;;;;;1.55;0.73;;;17.80;99.90;;;;;;4927743;28;20520;-65
2021/05/22 12:12:16;;;;;;;1.90;1.05;;;17.90;99.90;;;;;;4928093;28;20548;-65
2021/05/22 12:14:48;;;;;;;4.75;2.00;;;17.90;99.90;;;;;;4928243;28;20062;-64
2021/05/22 12:17:19;;;;;;;2.30;1.02;;;17.90;99.90;;;;;;4927250;28;20051;-64
2021/05/22 12:19:50;;;;;;;1.55;0.90;;;18.20;99.90;;;;;;4919994;28;20055;-65
2021/05/22 12:22:28;;;;;;;4.57;1.58;;;18.30;99.90;;;;;;4927059;28;20043;-64
2021/05/22 12:24:56;;;;;;;5.85;1.02;;;18.60;99.90;;;;;;4926334;28;20070;-63
2021/05/22 12:27:23;;;;;;;5.45;1.10;;;18.40;99.90;;;;;;4925309;28;20417;-65
2021/05/22 12:29:52;;;;;;;3.10;0.93;;;18.50;99.90;;;;;;4926395;28;20146;-65
2021/05/22 12:32:20;;;;;;;2.70;1.20;;;18.60;99.20;;;;;;4925434;28;20047;-64
2021/05/22 12:35:02;;;;;;;4.20;1.15;;;18.50;99.00;;;;;;4926593;28;20051;-64
2021/05/22 12:37:30;;;;;;;5.95;1.48;;;18.60;99.10;;;;;;4926457;28;20125;-64
2021/05/22 12:40:09;;;;;;;2.53;1.30;;;18.60;97.70;;;;;;4926622;28;20150;-64
2021/05/22 12:42:38;;;;;;;5.97;1.67;;;18.40;95.70;;;;;;4927882;28;20736;-65
2021/05/22 12:45:16;;;;;;;5.28;0.95;;;18.60;96.60;;;;;;4928845;28;20059;-64
2021/05/22 12:47:48;;;;;;;6.30;1.38;;;18.70;97.00;;;;;;4928069;28;20059;-63
2021/05/22 12:50:17;;;;;;;5.50;1.92;;;18.70;97.00;;;;;;4927604;28;20078;-64
2021/05/22 12:53:07;;;;;;;2.50;0.60;;;18.50;95.90;;;;;;4926856;28;20055;-64
2021/05/22 12:55:36;;;;;;;3.10;0.63;;;18.70;95.60;;;;;;4927252;28;20067;-65
2021/05/22 12:58:17;;;;;;;3.08;1.45;;;18.70;96.30;;;;;;4927832;28;20083;-65
2021/05/22 13:00:49;;;;;;;4.95;1.23;;;18.70;97.30;;;;;;4927907;28;20056;-66